Time;durP1;ratioP1;P1;durP2;ratioP2;P2;SDS_P1;SDS_P2;PMS_P1;PMS_P2;Temp;Humidity;BMP_temperature;BMP_pressure;BME280_temperature;BME280_humidity;BME280_pressure;Samples;Min_cycle;Max_cycle;Signal;HPM_P1;HPM_P2
2023/07/02 00:00:27;;;;;;;;;20.50;19.00;;;;;24.16;53.41;99511.40;110263;1260;21950;-37
2023/07/02 00:03:14;;;;;;;;;25.00;20.00;;;;;24.15;53.25;99513.40;110159;1265;21198;-37
2023/07/02 00:05:41;;;;;;;;;26.50;24.50;;;;;24.15;53.23;99515.54;110147;1251;20813;-38
2023/07/02 00:08:09;;;;;;;;;27.50;25.00;;;;;24.16;53.23;99509.42;110163;1260;20554;-37
2023/07/02 00:10:36;;;;;;;;;;;;;;;24.15;53.26;99502.45;110171;1249;18569;-38
2023/07/02 00:13:03;;;;;;;;;21.00;21.00;;;;;24.14;53.16;99508.66;110271;1251;19772;-38
2023/07/02 00:15:31;;;;;;;;;22.50;19.50;;;;;24.13;53.14;99513.03;110258;1265;22280;-38
2023/07/02 00:17:58;;;;;;;;;27.50;23.50;;;;;24.13;53.15;99514.09;110303;1265;18562;-38
2023/07/02 00:20:25;;;;;;;;;25.00;23.00;;;;;24.12;53.04;99516.28;110292;1251;20315;-38
2023/07/02 00:22:54;;;;;;;;;32.00;28.00;;;;;24.13;52.92;99514.71;110237;1260;20762;-39
2023/07/02 00:25:22;;;;;;;;;26.00;25.00;;;;;24.12;53.08;99512.38;110249;1250;19951;-37
2023/07/02 00:27:49;;;;;;;;;25.00;21.00;;;;;24.12;52.95;99506.30;110279;1251;20460;-37
2023/07/02 00:30:16;;;;;;;;;24.00;21.67;;;;;24.12;53.00;99501.80;110203;1265;19340;-37
2023/07/02 00:32:44;;;;;;;;;29.00;27.00;;;;;24.12;52.87;99500.54;110287;1266;18586;-37
2023/07/02 00:35:11;;;;;;;;;22.00;22.00;;;;;24.12;53.01;99498.30;110286;1250;22098;-37
2023/07/02 00:37:38;;;;;;;;;24.00;22.00;;;;;24.12;52.85;99499.98;110215;1250;20642;-38
2023/07/02 00:40:06;;;;;;;;;24.00;22.00;;;;;24.12;52.83;99507.95;110189;1251;23322;-38
2023/07/02 00:42:33;;;;;;;;;24.50;21.50;;;;;24.12;52.78;99514.39;110234;1265;19026;-38
2023/07/02 00:45:02;;;;;;;;;26.00;25.00;;;;;24.11;52.57;99513.69;110280;1251;20844;-38
2023/07/02 00:47:30;;;;;;;;;31.00;23.00;;;;;24.11;52.67;99514.52;110204;1251;22269;-38
2023/07/02 00:49:57;;;;;;;;;25.00;22.00;;;;;24.10;52.64;99513.63;110170;1251;20373;-39
2023/07/02 00:52:25;;;;;;;;;30.00;25.00;;;;;24.09;52.62;99513.88;110205;1265;19373;-38
2023/07/02 00:54:53;;;;;;;;;24.00;22.00;;;;;24.08;52.64;99516.38;110205;1250;19921;-39
2023/07/02 00:57:20;;;;;;;;;25.00;25.00;;;;;24.09;52.68;99510.48;110059;1251;180140;-39
2023/07/02 00:59:47;;;;;;;;;22.50;22.00;;;;;24.08;52.76;99500.00;110267;1251;20667;-39
2023/07/02 01:02:15;;;;;;;;;32.00;26.00;;;;;24.07;52.55;99503.36;110287;1251;22255;-38
2023/07/02 01:04:42;;;;;;;;;26.00;25.00;;;;;24.08;52.57;99497.81;110203;1251;18718;-38
2023/07/02 01:07:11;;;;;;;;;21.00;20.00;;;;;24.09;52.53;99487.31;110172;1260;22328;-38
2023/07/02 01:09:38;;;;;;;;;24.50;21.00;;;;;24.09;52.70;99481.26;110187;1265;18697;-38
2023/07/02 01:12:06;;;;;;;;;28.00;26.00;;;;;24.08;52.80;99483.04;110237;1265;18992;-38
2023/07/02 01:14:33;;;;;;;;;24.00;22.00;;;;;24.08;52.67;99484.64;110179;1265;19363;-38
2023/07/02 01:17:00;;;;;;;;;25.00;22.00;;;;;24.08;52.70;99481.92;110209;1251;20017;-38
2023/07/02 01:19:27;;;;;;;;;28.50;24.50;;;;;24.08;52.58;99478.91;110205;1251;21473;-38
2023/07/02 01:21:55;;;;;;;;;25.67;23.33;;;;;24.07;52.77;99473.26;110218;1265;22345;-38
2023/07/02 01:24:22;;;;;;;;;23.00;23.00;;;;;24.07;52.77;99476.96;110194;1250;18608;-38
2023/07/02 01:26:49;;;;;;;;;25.50;25.00;;;;;24.07;52.68;99483.38;110225;1251;20082;-37
2023/07/02 01:29:17;;;;;;;;;25.00;25.00;;;;;24.07;52.84;99482.48;110265;1265;19449;-37
2023/07/02 01:31:44;;;;;;;;;25.00;23.00;;;;;24.06;52.68;99478.31;110213;1265;22295;-38
2023/07/02 01:34:11;;;;;;;;;25.00;23.50;;;;;24.06;52.76;99485.10;110201;1260;20150;-37
2023/07/02 01:36:39;;;;;;;;;24.33;23.67;;;;;24.06;52.85;99485.80;110185;1250;21854;-37
2023/07/02 01:39:06;;;;;;;;;26.50;21.50;;;;;24.06;52.81;99495.77;110177;1260;22626;-38
2023/07/02 01:41:33;;;;;;;;;30.50;24.00;;;;;24.06;52.77;99496.97;110216;1265;19039;-39
2023/07/02 01:44:01;;;;;;;;;21.00;21.00;;;;;24.06;52.91;99493.57;110237;1251;20692;-38
2023/07/02 01:46:28;;;;;;;;;22.67;22.00;;;;;24.06;52.80;99492.31;110280;1249;21447;-37
2023/07/02 01:48:55;;;;;;;;;30.00;26.00;;;;;24.05;52.99;99480.95;110247;1259;20130;-37
2023/07/02 01:51:23;;;;;;;;;23.50;21.50;;;;;24.04;52.87;99473.60;110183;1260;22242;-38
2023/07/02 01:53:50;;;;;;;;;26.00;24.50;;;;;24.03;52.97;99474.71;110206;1265;18577;-38
2023/07/02 01:56:17;;;;;;;;;24.00;21.00;;;;;24.03;53.18;99473.62;110200;1251;20130;-38
2023/07/02 01:58:45;;;;;;;;;23.67;23.00;;;;;24.03;53.08;99474.17;110219;1251;22751;-38
2023/07/02 02:01:12;;;;;;;;;28.67;25.00;;;;;24.00;53.25;99470.48;110276;1250;20875;-37
2023/07/02 02:03:39;;;;;;;;;22.00;21.00;;;;;24.01;53.43;99468.73;110239;1265;20300;-38
2023/07/02 02:06:07;;;;;;;;;22.67;22.00;;;;;24.00;53.57;99467.52;110176;1265;19365;-37
2023/07/02 02:08:34;;;;;;;;;21.00;20.50;;;;;24.02;53.59;99467.02;110176;1251;22009;-38
2023/07/02 02:11:01;;;;;;;;;21.00;20.00;;;;;24.01;53.78;99467.95;110133;1251;18720;-38
2023/07/02 02:13:29;;;;;;;;;22.00;22.00;;;;;24.02;53.80;99475.83;110135;1265;19241;-38
2023/07/02 02:15:56;;;;;;;;;26.00;25.00;;;;;24.01;53.85;99474.22;110240;1260;22084;-38
2023/07/02 02:18:23;;;;;;;;;24.50;24.50;;;;;24.01;54.07;99473.54;110257;1265;18681;-38
2023/07/02 02:20:51;;;;;;;;;25.00;21.50;;;;;23.99;54.04;99471.11;110213;1251;20876;-39
2023/07/02 02:23:18;;;;;;;;;22.00;22.00;;;;;23.98;54.35;99466.71;110218;1265;18991;-38
2023/07/02 02:25:45;;;;;;;;;22.00;21.00;;;;;23.98;54.24;99465.59;110210;1251;20225;-37
2023/07/02 02:28:13;;;;;;;;;26.00;24.50;;;;;23.97;54.31;99462.18;110245;1250;21957;-37
2023/07/02 02:30:40;;;;;;;;;21.00;21.00;;;;;23.97;54.29;99465.27;110253;1250;19900;-37
2023/07/02 02:33:07;;;;;;;;;25.00;23.00;;;;;23.97;54.31;99464.88;110275;1265;22352;-37
2023/07/02 02:35:35;;;;;;;;;23.00;22.00;;;;;23.97;54.37;99466.78;110256;1266;19696;-37
2023/07/02 02:38:02;;;;;;;;;22.00;21.50;;;;;23.97;54.26;99464.60;110256;1257;20014;-38
2023/07/02 02:40:29;;;;;;;;;25.00;25.00;;;;;23.96;54.22;99459.63;110222;1265;18580;-38
2023/07/02 02:42:57;;;;;;;;;24.00;24.00;;;;;23.95;54.35;99463.42;110213;1259;20668;-37
2023/07/02 02:45:24;;;;;;;;;21.50;21.50;;;;;23.96;54.30;99464.77;110262;1265;22921;-38
2023/07/02 02:47:51;;;;;;;;;28.00;26.50;;;;;23.95;54.12;99461.65;110295;1250;20295;-37
2023/07/02 02:50:18;;;;;;;;;24.00;21.00;;;;;23.95;54.21;99464.19;110287;1266;22676;-38
2023/07/02 02:52:46;;;;;;;;;28.50;25.00;;;;;23.94;54.05;99466.14;110285;1250;20072;-38
2023/07/02 02:55:13;;;;;;;;;29.33;22.33;;;;;23.94;54.08;99468.06;110281;1250;20315;-37
2023/07/02 02:57:40;;;;;;;;;21.50;21.00;;;;;23.94;54.01;99470.56;110219;1265;19430;-38
2023/07/02 03:00:09;;;;;;;;;32.50;25.50;;;;;23.93;54.01;99469.23;110253;1250;19961;-37
2023/07/02 03:02:36;;;;;;;;;23.50;23.00;;;;;23.93;54.02;99472.73;110301;1266;22151;-37
2023/07/02 03:05:04;;;;;;;;;24.00;22.00;;;;;23.93;53.82;99468.42;110292;1251;21146;-37
2023/07/02 03:07:31;;;;;;;;;21.00;20.00;;;;;23.92;53.98;99468.44;110244;1250;20249;-39
2023/07/02 03:09:58;;;;;;;;;22.00;21.00;;;;;23.92;53.94;99465.75;110225;1249;21823;-38
2023/07/02 03:12:26;;;;;;;;;21.67;21.00;;;;;23.92;53.96;99464.48;110192;1266;22496;-39
2023/07/02 03:14:55;;;;;;;;;23.00;21.00;;;;;23.91;53.92;99463.06;110169;1265;22200;-38
2023/07/02 03:17:22;;;;;;;;;20.50;20.00;;;;;23.91;54.00;99458.02;110206;1251;20148;-38
2023/07/02 03:19:49;;;;;;;;;20.00;18.00;;;;;23.91;54.07;99457.80;110277;1265;19387;-38
2023/07/02 03:22:17;;;;;;;;;18.00;17.00;;;;;23.90;54.17;99457.92;110233;1265;18719;-38
2023/07/02 03:24:44;;;;;;;;;20.00;17.00;;;;;23.91;54.22;99457.02;110230;1260;20336;-38
2023/07/02 03:27:11;;;;;;;;;17.00;16.00;;;;;23.90;54.26;99455.96;110202;1265;19319;-38
2023/07/02 03:29:39;;;;;;;;;17.00;17.00;;;;;23.90;54.39;99463.45;110132;1265;20835;-38
2023/07/02 03:32:06;;;;;;;;;16.00;16.00;;;;;23.89;54.41;99459.16;110193;1265;18730;-39
2023/07/02 03:34:33;;;;;;;;;16.00;16.00;;;;;23.89;54.51;99458.06;110275;1250;22161;-38
2023/07/02 03:37:01;;;;;;;;;16.50;14.00;;;;;23.89;54.55;99460.08;110267;1251;21353;-36
2023/07/02 03:39:28;;;;;;;;;13.00;13.00;;;;;23.89;54.73;99457.61;110191;1265;20070;-39
2023/07/02 03:41:55;;;;;;;;;14.00;13.00;;;;;23.89;54.64;99461.83;110167;1260;22489;-39
2023/07/02 03:44:22;;;;;;;;;14.00;14.00;;;;;23.89;54.87;99459.80;110233;1250;21096;-38
2023/07/02 03:46:50;;;;;;;;;16.00;14.00;;;;;23.88;54.79;99462.24;110198;1265;18676;-38
2023/07/02 03:49:17;;;;;;;;;12.00;12.00;;;;;23.89;54.87;99468.38;110214;1251;20793;-38
2023/07/02 03:51:44;;;;;;;;;16.00;14.00;;;;;23.89;54.87;99463.92;110170;1265;20961;-37
2023/07/02 03:54:12;;;;;;;;;13.50;11.00;;;;;23.89;55.01;99461.27;110168;1265;18571;-38
2023/07/02 03:56:39;;;;;;;;;14.00;14.00;;;;;23.89;55.13;99464.29;110110;1250;22717;-38
2023/07/02 03:59:06;;;;;;;;;10.00;10.00;;;;;23.89;55.26;99461.81;110174;1260;19988;-38
2023/07/02 04:01:34;;;;;;;;;9.00;9.00;;;;;23.88;55.39;99459.72;110147;1266;22032;-38
2023/07/02 04:04:01;;;;;;;;;9.00;9.00;;;;;23.89;55.53;99460.64;110232;1251;22209;-38
2023/07/02 04:06:28;;;;;;;;;13.00;12.00;;;;;23.89;55.59;99459.58;110249;1257;19841;-38
2023/07/02 04:08:56;;;;;;;;;9.00;9.00;;;;;23.89;55.59;99459.20;110287;1265;18820;-38
2023/07/02 04:11:23;;;;;;;;;9.00;9.00;;;;;23.90;55.63;99463.41;110141;1250;20997;-38
2023/07/02 04:13:50;;;;;;;;;9.00;9.00;;;;;23.90;55.79;99462.86;110225;1251;19647;-38
2023/07/02 04:16:18;;;;;;;;;8.00;8.00;;;;;23.89;55.83;99454.19;110294;1260;19905;-37
2023/07/02 04:18:45;;;;;;;;;11.00;9.00;;;;;23.91;55.92;99457.90;110221;1265;19467;-37
2023/07/02 04:21:12;;;;;;;;;9.00;9.00;;;;;23.90;55.81;99459.74;110276;1251;19897;-37
2023/07/02 04:23:40;;;;;;;;;9.00;9.00;;;;;23.91;56.09;99457.72;110253;1251;20135;-37
2023/07/02 04:26:07;;;;;;;;;10.00;9.00;;;;;23.89;56.13;99456.44;110175;1251;21988;-38
2023/07/02 04:28:34;;;;;;;;;10.00;10.00;;;;;23.90;56.25;99455.85;110179;1258;19736;-38
2023/07/02 04:31:02;;;;;;;;;9.00;9.00;;;;;23.90;56.36;99457.51;110206;1251;20161;-38
2023/07/02 04:33:35;;;;;;;;;8.00;8.00;;;;;23.91;56.20;99460.08;110273;1251;21548;-37
2023/07/02 04:36:03;;;;;;;;;10.00;10.00;;;;;23.90;56.33;99459.20;110282;1251;19616;-38
2023/07/02 04:38:30;;;;;;;;;9.00;8.00;;;;;23.89;56.16;99457.19;110237;1251;20135;-38
2023/07/02 04:41:02;;;;;;;;;9.00;8.00;;;;;23.89;56.29;99458.62;110236;1265;19256;-37
2023/07/02 04:43:30;;;;;;;;;9.00;9.00;;;;;23.89;56.25;99461.56;110185;1261;19616;-37
2023/07/02 04:45:57;;;;;;;;;10.00;9.00;;;;;23.89;56.30;99456.30;110192;1265;18674;-38
2023/07/02 04:48:24;;;;;;;;;9.00;8.00;;;;;23.89;56.34;99465.00;110109;1265;19561;-37
2023/07/02 04:50:52;;;;;;;;;9.00;9.00;;;;;23.89;56.35;99459.24;110114;1251;20061;-37
2023/07/02 04:53:19;;;;;;;;;9.50;8.50;;;;;23.89;56.35;99459.62;110142;1261;19885;-38
2023/07/02 04:55:46;;;;;;;;;8.00;8.00;;;;;23.89;56.28;99462.38;110168;1251;22077;-38
2023/07/02 04:58:14;;;;;;;;;11.50;11.00;;;;;23.89;56.43;99470.02;110146;1265;18361;-38
2023/07/02 05:00:41;;;;;;;;;14.00;12.67;;;;;23.89;56.32;99471.95;110140;1260;19944;-38
2023/07/02 05:03:08;;;;;;;;;14.00;13.50;;;;;23.88;56.20;99470.30;110130;1250;19571;-38
2023/07/02 05:05:36;;;;;;;;;17.00;16.00;;;;;23.88;56.14;99467.21;110177;1251;20502;-38
2023/07/02 05:08:04;;;;;;;;;21.00;21.00;;;;;23.89;56.22;99466.91;110228;1265;18701;-38
2023/07/02 05:10:31;;;;;;;;;13.50;13.50;;;;;23.90;56.11;99466.79;110171;1249;19532;-38
2023/07/02 05:12:59;;;;;;;;;20.00;17.00;;;;;23.89;55.97;99467.96;110162;1265;18667;-38
2023/07/02 05:15:27;;;;;;;;;17.00;16.00;;;;;23.89;56.22;99471.58;110278;1260;21849;-38
2023/07/02 05:17:54;;;;;;;;;18.00;16.00;;;;;23.89;56.02;99467.75;110197;1250;20788;-38
2023/07/02 05:20:21;;;;;;;;;15.00;14.00;;;;;23.89;56.16;99471.79;110201;1260;19941;-39
2023/07/02 05:22:48;;;;;;;;;14.00;14.00;;;;;23.90;56.19;99470.39;110203;1265;18939;-38
2023/07/02 05:25:16;;;;;;;;;25.00;24.00;;;;;23.89;56.17;99475.95;110242;1265;19338;-38
2023/07/02 05:27:43;;;;;;;;;19.67;18.33;;;;;23.89;56.20;99473.98;110189;1251;19986;-38
2023/07/02 05:30:11;;;;;;;;;17.00;17.00;;;;;23.90;56.25;99471.65;110197;1251;20166;-38
2023/07/02 05:32:39;;;;;;;;;20.50;20.00;;;;;23.89;56.29;99474.88;110199;1249;22250;-39
2023/07/02 05:35:06;;;;;;;;;22.00;22.00;;;;;23.90;56.39;99478.45;110185;1257;19963;-38
2023/07/02 05:37:33;;;;;;;;;24.00;21.00;;;;;23.90;56.32;99482.91;110176;1260;21966;-38
2023/07/02 05:40:01;;;;;;;;;19.50;19.50;;;;;23.89;56.45;99486.74;110236;1259;20706;-38
2023/07/02 05:42:28;;;;;;;;;20.00;17.00;;;;;23.88;56.65;99487.46;110257;1265;18615;-38
2023/07/02 05:44:55;;;;;;;;;19.00;18.00;;;;;23.88;56.70;99489.81;110264;1260;20042;-37
2023/07/02 05:47:23;;;;;;;;;17.00;16.00;;;;;23.88;56.93;99501.58;110234;1251;20750;-37
2023/07/02 05:49:50;;;;;;;;;17.00;16.00;;;;;23.84;57.39;99499.21;110250;1250;20004;-38
2023/07/02 05:52:18;;;;;;;;;14.00;13.00;;;;;23.85;57.78;99511.67;110189;1265;20053;-39
2023/07/02 05:54:46;;;;;;;;;14.00;12.00;;;;;23.84;57.82;99513.66;110195;1265;22818;-38
2023/07/02 05:57:13;;;;;;;;;14.00;13.00;;;;;23.85;58.02;99517.14;110182;1265;20788;-38
2023/07/02 05:59:40;;;;;;;;;13.00;12.50;;;;;23.86;57.95;99518.10;110280;1251;20160;-38
2023/07/02 06:02:08;;;;;;;;;12.00;12.00;;;;;23.86;57.92;99512.33;110237;1265;19516;-38
2023/07/02 06:04:35;;;;;;;;;11.00;10.00;;;;;23.88;58.06;99518.33;110227;1265;18574;-38
2023/07/02 06:07:02;;;;;;;;;10.00;10.00;;;;;23.88;57.87;99519.16;110246;1250;20342;-38
2023/07/02 06:09:30;;;;;;;;;10.00;8.50;;;;;23.89;57.81;99510.69;110238;1265;19479;-38
2023/07/02 06:11:57;;;;;;;;;12.00;10.00;;;;;23.88;57.86;99507.04;110220;1249;20058;-38
2023/07/02 06:14:25;;;;;;;;;9.00;8.00;;;;;23.90;57.88;99511.49;110294;1251;18667;-36
2023/07/02 06:16:53;;;;;;;;;10.00;9.50;;;;;23.89;57.64;99504.17;110292;1265;19571;-38
2023/07/02 06:19:20;;;;;;;;;9.00;9.00;;;;;23.90;57.81;99504.38;110261;1265;18358;-37
2023/07/02 06:21:47;;;;;;;;;8.00;8.00;;;;;23.91;57.61;99507.70;110203;1265;18488;-37
2023/07/02 06:24:15;;;;;;;;;6.00;6.00;;;;;23.90;57.61;99506.48;110168;1265;20803;-36
2023/07/02 06:26:42;;;;;;;;;6.00;6.00;;;;;23.91;57.46;99511.93;110158;1250;21824;-36
2023/07/02 06:29:09;;;;;;;;;7.00;6.00;;;;;23.92;57.87;99509.73;110125;1265;21889;-38
2023/07/02 06:31:37;;;;;;;;;6.67;6.00;;;;;23.73;58.89;99515.73;110004;1265;20993;-48
2023/07/02 06:34:04;;;;;;;;;6.00;5.00;;;;;23.52;60.03;99513.23;110206;1249;18684;-38
2023/07/02 06:36:31;;;;;;;;;5.50;5.50;;;;;23.46;60.48;99520.14;110231;1265;20246;-37
2023/07/02 06:38:59;;;;;;;;;6.00;6.00;;;;;23.42;60.54;99511.51;110228;1250;20737;-37
2023/07/02 06:41:26;;;;;;;;;9.00;6.00;;;;;23.42;60.28;99511.09;110331;1244;62296;-78
2023/07/02 06:43:53;;;;;;;;;7.00;6.00;;;;;23.37;60.45;99512.43;110077;1260;20037;-77
2023/07/02 06:46:40;;;;;;;;;5.50;5.50;;;;;23.32;60.41;99510.08;110159;1243;61438;-38
2023/07/02 06:49:49;;;;;;;;;8.33;8.33;;;;;23.39;60.42;99501.94;106821;1296;19609;-37
2023/07/02 06:52:16;;;;;;;;;8.00;7.00;;;;;23.35;60.17;99512.59;108666;1263;18355;-37
2023/07/02 06:54:43;;;;;;;;;6.00;5.00;;;;;23.32;59.96;99511.23;108746;1277;18122;-37
2023/07/02 06:57:11;;;;;;;;;5.00;5.00;;;;;23.36;59.79;99507.81;108690;1262;19293;-37
2023/07/02 06:59:38;;;;;;;;;6.00;6.00;;;;;23.33;59.05;99507.04;109389;1256;19797;-38
2023/07/02 07:02:06;;;;;;;;;6.67;6.00;;;;;23.26;57.90;99510.14;109053;1254;491605;-37
2023/07/02 07:04:34;;;;;;;;;5.00;5.00;;;;;23.31;56.91;99511.78;110052;1267;17719;-37
2023/07/02 07:07:03;;;;;;;;;6.00;6.00;;;;;23.35;56.38;99513.04;110028;1267;18356;-38
2023/07/02 07:09:30;;;;;;;;;5.00;5.00;;;;;23.35;56.15;99515.91;110261;1255;19474;-38
2023/07/02 07:11:57;;;;;;;;;6.00;5.00;;;;;23.39;55.74;99522.43;110241;1250;19278;-39
2023/07/02 07:14:25;;;;;;;;;6.00;6.00;;;;;23.42;55.62;99524.51;110213;1248;21709;-37
2023/07/02 07:16:52;;;;;;;;;6.00;6.00;;;;;23.41;55.16;99529.64;110251;1248;18132;-37
2023/07/02 07:19:19;;;;;;;;;7.33;7.33;;;;;23.39;54.82;99528.70;110290;1264;18940;-37
2023/07/02 07:21:47;;;;;;;;;7.00;7.00;;;;;23.44;54.57;99530.17;110288;1258;19745;-37
2023/07/02 07:24:14;;;;;;;;;8.00;6.00;;;;;23.43;54.74;99532.31;110295;1257;19505;-37
2023/07/02 07:26:41;;;;;;;;;7.00;7.00;;;;;23.41;54.43;99534.27;110267;1264;17890;-38
2023/07/02 07:29:09;;;;;;;;;8.33;6.00;;;;;23.34;54.54;99537.86;110216;1248;19861;-37
2023/07/02 07:31:36;;;;;;;;;8.00;8.00;;;;;23.31;54.56;99537.73;110252;1250;19671;-38
2023/07/02 07:34:04;;;;;;;;;6.00;6.00;;;;;23.38;54.69;99548.89;110222;1248;17810;-37
2023/07/02 07:36:31;;;;;;;;;8.50;8.00;;;;;23.42;54.71;99555.73;110209;1257;19670;-37
2023/07/02 07:38:58;;;;;;;;;8.50;7.00;;;;;23.38;54.96;99558.98;110186;1248;19698;-38
2023/07/02 07:41:26;;;;;;;;;6.00;6.00;;;;;23.34;55.43;99562.90;110227;1250;19217;-37
2023/07/02 07:43:53;;;;;;;;;6.00;6.00;;;;;23.26;55.92;99556.86;110312;1264;21773;-38
2023/07/02 07:46:21;;;;;;;;;9.00;8.67;;;;;23.17;55.56;99564.58;110232;1248;19590;-38
2023/07/02 07:48:48;;;;;;;;;9.00;9.00;;;;;23.19;54.78;99568.31;110203;1264;19514;-38
2023/07/02 07:51:15;;;;;;;;;9.00;9.00;;;;;23.19;54.52;99569.44;110203;1264;21898;-38
2023/07/02 07:53:43;;;;;;;;;9.00;8.00;;;;;23.13;53.94;99571.63;110227;1248;19835;-38
2023/07/02 07:56:10;;;;;;;;;8.00;8.00;;;;;23.07;53.48;99576.58;110235;1264;18119;-38
2023/07/02 07:58:38;;;;;;;;;7.00;6.00;;;;;22.98;53.29;99580.42;110287;1249;19994;-38
2023/07/02 08:01:06;;;;;;;;;8.00;8.00;;;;;23.06;53.39;99569.55;110257;1264;18347;-37
2023/07/02 08:03:33;;;;;;;;;12.00;9.00;;;;;23.08;53.27;99575.64;110284;1248;20338;-37
2023/07/02 08:06:00;;;;;;;;;11.00;9.00;;;;;23.12;52.96;99568.52;110219;1264;18343;-38
2023/07/02 08:08:28;;;;;;;;;9.00;9.00;;;;;23.19;52.59;99569.79;110210;1247;20265;-38
2023/07/02 08:10:55;;;;;;;;;9.00;9.00;;;;;23.15;52.38;99562.23;110256;1264;19373;-38
2023/07/02 08:13:23;;;;;;;;;8.00;8.00;;;;;23.15;52.06;99560.85;110260;1264;19786;-38
2023/07/02 08:15:50;;;;;;;;;9.00;9.00;;;;;23.26;51.38;99561.70;110276;1264;19575;-38
2023/07/02 08:18:18;;;;;;;;;9.00;9.00;;;;;23.37;51.33;99569.10;110079;1257;19973;-37
2023/07/02 08:20:45;;;;;;;;;9.00;9.00;;;;;23.38;50.87;99566.71;110189;1264;18736;-38
2023/07/02 08:23:12;;;;;;;;;9.00;9.00;;;;;23.28;50.99;99571.31;110186;1264;18177;-37
2023/07/02 08:25:40;;;;;;;;;10.00;9.00;;;;;23.21;51.18;99567.11;110142;1248;17785;-37
2023/07/02 08:28:07;;;;;;;;;8.00;8.00;;;;;23.23;50.15;99575.01;110254;1257;20201;-37
2023/07/02 08:30:34;;;;;;;;;;;;;;;23.23;48.91;99569.38;110223;1264;19071;-38
2023/07/02 08:33:02;;;;;;;;;6.00;6.00;;;;;23.37;48.13;99578.21;110143;1247;21828;-37
2023/07/02 08:35:29;;;;;;;;;9.00;9.00;;;;;23.52;47.59;99584.03;110264;1264;20157;-37
2023/07/02 08:37:57;;;;;;;;;8.00;8.00;;;;;23.64;47.69;99591.71;110181;1250;19640;-37
2023/07/02 08:40:24;;;;;;;;;8.00;8.00;;;;;23.70;47.50;99591.63;110136;1264;17750;-36
2023/07/02 08:42:52;;;;;;;;;6.67;6.67;;;;;23.71;46.91;99596.44;110214;1251;19808;-37
2023/07/02 08:45:19;;;;;;;;;11.00;9.50;;;;;23.71;46.09;99602.13;110248;1247;21500;-37
2023/07/02 08:47:47;;;;;;;;;6.00;6.00;;;;;23.69;45.08;99598.27;110291;1247;19533;-37
2023/07/02 08:50:14;;;;;;;;;8.00;8.00;;;;;23.73;44.83;99600.16;110258;1264;18936;-37
2023/07/02 08:52:42;;;;;;;;;8.50;8.50;;;;;23.69;44.25;99608.25;110177;1264;18444;-37
2023/07/02 08:55:10;;;;;;;;;6.00;6.00;;;;;23.61;44.19;99605.02;110192;1247;21529;-37
2023/07/02 08:57:37;;;;;;;;;6.00;6.00;;;;;23.56;43.98;99608.29;110142;1264;22153;-37
2023/07/02 09:00:05;;;;;;;;;8.00;6.00;;;;;23.64;44.01;99610.31;110252;1250;21957;-38
2023/07/02 09:02:32;;;;;;;;;6.00;6.00;;;;;23.73;43.76;99604.86;110161;1264;18173;-38
2023/07/02 09:04:59;;;;;;;;;9.00;9.00;;;;;23.80;44.05;99601.70;110239;1249;20200;-37
2023/07/02 09:07:27;;;;;;;;;13.33;12.00;;;;;23.88;44.02;99601.29;110248;1249;19556;-37
2023/07/02 09:09:54;;;;;;;;;8.00;8.00;;;;;23.92;43.99;99599.45;110212;1249;19527;-37
2023/07/02 09:12:22;;;;;;;;;6.00;6.00;;;;;23.93;43.65;99604.02;110074;1264;18627;-37
2023/07/02 09:14:49;;;;;;;;;5.50;5.50;;;;;23.94;42.98;99601.37;110232;1264;19536;-37
2023/07/02 09:17:16;;;;;;;;;8.50;6.00;;;;;23.95;42.66;99603.21;110289;1264;17996;-38
2023/07/02 09:19:44;;;;;;;;;5.00;5.00;;;;;24.00;42.33;99605.73;110145;1250;19850;-38
2023/07/02 09:22:15;;;;;;;;;6.00;6.00;;;;;23.96;41.98;99609.65;110244;1263;19538;-37
2023/07/02 09:24:43;;;;;;;;;8.00;8.00;;;;;23.95;41.91;99607.72;110232;1263;18493;-38
2023/07/02 09:27:10;;;;;;;;;5.00;5.00;;;;;24.01;42.23;99601.81;110278;1249;18425;-38
2023/07/02 09:29:38;;;;;;;;;5.00;5.00;;;;;24.05;42.25;99607.91;110282;1263;19678;-38
2023/07/02 09:32:07;;;;;;;;;8.00;8.00;;;;;24.08;41.97;99605.27;110286;1250;17799;-38
2023/07/02 09:34:34;;;;;;;;;6.00;6.00;;;;;24.06;42.21;99613.25;110279;1263;18961;-38
2023/07/02 09:37:03;;;;;;;;;6.00;6.00;;;;;24.04;42.24;99617.73;110323;1249;20189;-39
2023/07/02 09:39:31;;;;;;;;;8.00;6.00;;;;;24.04;42.20;99621.35;110190;1249;18066;-37
2023/07/02 09:42:00;;;;;;;;;6.00;5.50;;;;;24.09;42.18;99614.29;110265;1263;18991;-38
2023/07/02 09:44:29;;;;;;;;;8.00;6.00;;;;;24.14;42.36;99617.93;110316;1263;19506;-37
2023/07/02 09:46:56;;;;;;;;;9.00;8.00;;;;;24.14;42.34;99617.46;110292;1263;18525;-37
2023/07/02 09:49:24;;;;;;;;;8.00;6.00;;;;;24.01;42.20;99614.36;110199;1264;18950;-37
2023/07/02 09:51:52;;;;;;;;;8.00;8.00;;;;;24.03;42.35;99611.34;110029;1249;19925;-37
2023/07/02 09:54:20;;;;;;;;;9.00;8.00;;;;;24.09;42.24;99605.18;110223;1249;17862;-37
2023/07/02 09:56:48;;;;;;;;;5.00;5.00;;;;;24.13;42.49;99604.05;110183;1247;19050;-37
2023/07/02 09:59:16;;;;;;;;;6.00;6.00;;;;;24.24;42.83;99598.36;110285;1263;19476;-38
2023/07/02 10:01:43;;;;;;;;;6.00;5.00;;;;;24.21;42.47;99591.11;110286;1263;19231;-37
2023/07/02 10:04:11;;;;;;;;;20.50;16.50;;;;;24.32;42.20;99595.22;110171;1257;18385;-40
2023/07/02 10:06:38;;;;;;;;;29.00;24.50;;;;;24.43;42.09;99591.90;110271;1248;20169;-38
2023/07/02 10:09:06;;;;;;;;;36.50;34.00;;;;;24.48;42.11;99600.98;110277;1263;21836;-37
2023/07/02 10:11:33;;;;;;;;;27.00;21.50;;;;;24.44;42.19;99598.38;110294;1257;19814;-37
2023/07/02 10:14:00;;;;;;;;;31.50;28.00;;;;;24.45;42.02;99600.64;110063;1263;18809;-36
2023/07/02 10:16:31;;;;;;;;;55.50;42.00;;;;;24.37;42.42;99595.39;110227;1250;23266;-38
2023/07/02 10:18:59;;;;;;;;;65.00;50.00;;;;;24.34;42.64;99596.75;110277;1264;21102;-39
2023/07/02 10:21:26;;;;;;;;;57.50;44.00;;;;;24.34;43.03;99601.14;110262;1247;22028;-39
2023/07/02 10:23:53;;;;;;;;;35.33;31.00;;;;;24.32;43.32;99598.99;110215;1247;19711;-39
2023/07/02 10:26:21;;;;;;;;;30.00;24.00;;;;;24.34;43.55;99603.71;110123;1257;19806;-39
2023/07/02 10:28:48;;;;;;;;;16.00;13.50;;;;;24.37;43.61;99601.03;110197;1248;20035;-38
2023/07/02 10:31:15;;;;;;;;;11.00;11.00;;;;;24.52;42.87;99597.33;110219;1257;19428;-39
2023/07/02 10:33:42;;;;;;;;;8.50;8.50;;;;;24.56;41.59;99597.44;110233;1247;21101;-39
2023/07/02 10:36:10;;;;;;;;;9.00;9.00;;;;;24.51;41.23;99603.98;110266;1250;20020;-38
2023/07/02 10:38:37;;;;;;;;;8.00;8.00;;;;;24.55;40.93;99605.80;110259;1263;17962;-38
2023/07/02 10:41:05;;;;;;;;;8.00;8.00;;;;;24.45;40.40;99610.64;110272;1263;18505;-39
2023/07/02 10:43:32;;;;;;;;;8.00;8.00;;;;;24.34;40.17;99613.36;110221;1257;21999;-38
2023/07/02 10:46:00;;;;;;;;;8.00;8.00;;;;;24.44;40.75;99605.84;110224;1263;20878;-39
2023/07/02 10:48:28;;;;;;;;;8.00;8.00;;;;;24.41;41.06;99618.04;110222;1264;19731;-37
2023/07/02 10:50:55;;;;;;;;;7.00;7.00;;;;;24.36;41.31;99619.45;110307;1263;19601;-38
2023/07/02 10:53:23;;;;;;;;;10.00;8.00;;;;;24.25;40.96;99624.25;110253;1263;19126;-38
2023/07/02 10:55:51;;;;;;;;;8.00;8.00;;;;;24.18;40.63;99614.52;110218;1263;19820;-38
2023/07/02 10:58:18;;;;;;;;;12.00;11.00;;;;;24.17;40.06;99626.16;110202;1263;18584;-38
2023/07/02 11:00:46;;;;;;;;;13.00;13.00;;;;;24.09;39.98;99623.25;110187;1263;19433;-39
2023/07/02 11:03:14;;;;;;;;;9.00;8.00;;;;;24.00;40.52;99632.66;110206;1264;18926;-39
2023/07/02 11:05:42;;;;;;;;;8.00;8.00;;;;;23.98;40.87;99628.40;110233;1263;18565;-38
2023/07/02 11:08:09;;;;;;;;;9.00;8.00;;;;;23.97;40.91;99627.15;110265;1263;19707;-38
2023/07/02 11:10:37;;;;;;;;;10.00;9.00;;;;;24.06;40.98;99627.83;110244;1264;21857;-38
2023/07/02 11:13:04;;;;;;;;;9.67;8.00;;;;;24.04;40.49;99627.31;110273;1247;18173;-38
2023/07/02 11:15:32;;;;;;;;;8.00;8.00;;;;;23.95;40.39;99628.90;110300;1263;19460;-38
2023/07/02 11:18:00;;;;;;;;;8.00;8.00;;;;;23.90;40.29;99629.83;110189;1264;19182;-40